Historyczne dane pomiarowe

Dodano dane terminowe – wersja testowa.

Dane z okresu 1951-2019

Wersja bazy: 1.34 [2019-03-16, lista zmian], aktualizacja planowana na 2019-04-15

Dane meteo z obszaru Polski uzyskane na podstawie danych udostępnionych przez Instytut Meteorologii i Gospodarki Wodnej – Państwowy Instytut Badawczy.

 

Wybierz Datę:    

       

TemperaturaWilgotnośćWiatrCiśnienieOpadyŚniegCzas trwania zjawisk
 Stacja t tx tn tng RH VA  wxwx mslp ppp RRR   cm mm wxwxwxwxwxwxwx
1994-08-14 14.8 20.0 9.7 5.9 57.5- 5.0 2.0---- 0.0------------
1994-08-13 17.0 23.2 15.0 12.1 76.0- 4.7 2.7---- 0.2------------
1994-08-12 17.7 21.0 14.8 12.6 80.3- 6.3 0.3---- 1.6------------
1994-08-11 20.0 25.4 17.2 15.7 78.5- 7.3 1.7---- 2.8------------
1994-08-10 20.6 28.7 12.4 10.0 67.0- 3.3 1.0---- 14.8------------
1994-08-09 20.0 24.4 17.2 17.1 87.8- 5.0 1.7---- 1.1------------
1994-08-08 21.3 25.3 17.5 15.1 83.3- 7.3 0.7---- 10.6------------
1994-08-07 23.4 30.6 16.8 13.4 64.3- 5.0 0.7---- 0.6------------
1994-08-06 25.8 34.2 16.0 12.6 52.5- 4.3 1.3---- 0.0------------
1994-08-05 24.1 32.9 13.5 10.3 52.5- 1.7 0.7---- 0.0------------
1994-08-04 23.0 30.7 14.6 10.3 54.0- 1.3 1.3---- 0.0------------
1994-08-03 23.3 30.0 18.8 17.5 68.3- 4.0 1.0---- 0.0------------
1994-08-02 25.5 32.3 18.5 14.9 49.3- 4.3 1.7---- 0.0------------
1994-08-01 27.3 36.1 17.1 14.1 50.5- 2.0 0.7---- 0.0------------
1994-07-31 27.5 36.1 16.6 12.4 54.0- 3.7 0.7---- 0.0------------
1994-07-30 26.5 35.4 15.9 11.6 51.8- 0.3 0.7---- 0.0------------
1994-07-29 25.6 34.9 14.5 10.9 52.8- 0.7 0.3---- 0.0------------
1994-07-28 25.3 34.2 14.6 10.0 51.3- 2.7 1.3---- 0.0------------
1994-07-27 25.2 33.6 16.5 12.8 53.3- 3.0 0.3---- 0.0------------
1994-07-26 24.6 33.6 15.1 11.1 57.3- 4.0 0.3---- 0.0------------
1994-07-25 24.2 32.7 12.6 9.7 53.5- 2.7 0.3---- 0.0------------
1994-07-24 22.3 31.3 11.8 8.6 57.5- 2.3 0.0---- 0.0------------
1994-07-23 21.6 29.6 10.3 6.7 57.3- 2.3 0.0---- 0.0------------
1994-07-22 21.6 29.7 10.6 7.4 58.8- 0.7 1.0---- 0.0------------
1994-07-21 19.7 27.7 8.6 6.1 63.3- 0.0 0.7---- 0.0------------
1994-07-20 19.1 25.1 12.8 10.1 57.3- 2.3 0.7---- 0.0------------
1994-07-19 18.2 23.2 16.0 14.3 78.3- 8.0 0.7---- 0.0------------
1994-07-18 20.8 26.1 14.5 13.0 77.5- 4.0 1.0---- 0.0------------
1994-07-17 20.8 27.7 14.7 12.6 78.0- 7.7 0.3---- 8.8------------
1994-07-16 22.2 29.7 16.0 13.2 72.5- 6.7 1.0---- 31.5------------
1994-07-15 23.5 30.6 13.3 10.0 61.3- 4.0 1.0---- 0.0------------
1994-07-14 23.1 31.3 12.8 9.5 61.8- 3.7 0.0---- 0.0------------
1994-07-13 21.5 29.1 11.8 8.1 63.3- 4.0 2.3---- 0.0------------
1994-07-12 21.7 27.4 16.0 12.6 67.5- 5.0 1.0---- 0.0------------
1994-07-11 19.9 27.1 13.0 9.7 69.5- 5.0 1.3---- 0.0------------
1994-07-10 16.9 22.7 14.0 12.8 81.8- 6.0 1.0---- 1.3------------
1994-07-09 15.7 19.8 13.7 11.2 77.3- 7.7 3.3---- 1.5------------
1994-07-08 16.6 21.5 10.8 5.9 62.3- 5.0 4.7---- 0.0------------
1994-07-07 18.0 25.1 13.0 9.6 78.8- 6.3 1.3---- 0.0------------
1994-07-06 19.4 25.7 12.0 10.1 71.8- 3.7 1.3---- 0.0------------
1994-07-05 19.5 27.2 13.9 10.5 69.8- 7.0 1.0---- 0.0------------
1994-07-04 21.6 30.8 11.3 8.0 56.8- 2.3 0.7---- 0.0------------
1994-07-03 20.3 29.0 9.6 6.4 61.5- 1.0 0.3---- 0.0------------
1994-07-02 18.7 26.5 9.3 6.1 67.8- 0.0 1.0---- 0.0------------
1994-07-01 17.9 24.0 11.1 8.9 73.0- 2.3 0.7---- 0.0------------
1994-06-30 19.5 27.6 18.1 17.2 90.5- 6.7 3.0---- 4.6------------
1994-06-29 25.6 32.5 17.0 14.0 66.5- 3.7 0.0---- 8.0------------
1994-06-28 25.4 31.7 17.5 14.8 69.0- 5.3 0.7---- 0.0------------
1994-06-27 26.2 32.8 17.8 14.5 65.5- 3.0 0.0---- 0.0------------
1994-06-26 23.5 30.7 12.5 8.7 53.8- 2.3 2.0---- 0.0------------
1994-06-25 17.3 25.2 4.7 1.6 52.5- 0.0 2.0---- 0.0------------
1994-06-24 15.3 22.2 6.8 2.9 53.5- 0.7 0.7---- 0.0------------
1994-06-23 17.3 22.0 14.8 14.0 60.5- 1.7 2.7---- 0.0------------
1994-06-22 19.2 25.7 10.7 7.9 69.3- 5.3 1.3---- 0.0------------
1994-06-21 16.0 23.1 7.4 4.1 70.8- 2.0 0.3---- 0.0------------
1994-06-20 16.0 21.8 11.3 7.9 76.3- 6.3 1.3---- 0.0------------
1994-06-19 18.7 26.7 13.0 12.6 67.8- 5.0 1.7---- 0.0------------
1994-06-18 13.2 21.8 3.3 0.6 72.3- 5.7 2.3---- 1.5------------
1994-06-17 11.1 15.0 7.6 5.9 78.5- 6.0 1.3---- 0.8------------
1994-06-16 11.8 16.5 6.4 3.1 73.0- 7.0 1.3---- 4.8------------
394.8 ms

 

Źródłem pochodzenia danych jest Instytut Meteorologii i Gospodarki Wodnej – Państwowy Instytut Badawczy. Dane Instytutu Meteorologii i Gospodarki Wodnej – Państwowego Instytutu Badawczego zostały przetworzone.

Dane źródłowe można odnaleźć na stronie https://dane.imgw.pl